sensor_id;sensor_type;location;lat;lon;timestamp;pressure;altitude;pressure_sealevel;temperature;humidity
12757;BME280;31601;48.042;12.240;2023-05-19T00:00:17;96632.88;;;11.01;63.54
12757;BME280;31601;48.042;12.240;2023-05-19T00:02:44;96624.88;;;11.18;63.28
12757;BME280;31601;48.042;12.240;2023-05-19T00:05:12;96618.81;;;11.32;62.94
12757;BME280;31601;48.042;12.240;2023-05-19T00:07:42;96622.09;;;10.96;63.76
12757;BME280;31601;48.042;12.240;2023-05-19T00:10:10;96614.81;;;11.21;63.14
12757;BME280;31601;48.042;12.240;2023-05-19T00:12:37;96616.94;;;11.03;63.79
12757;BME280;31601;48.042;12.240;2023-05-19T00:15:05;96615.44;;;11.08;63.56
12757;BME280;31601;48.042;12.240;2023-05-19T00:17:31;96617.56;;;11.28;62.90
12757;BME280;31601;48.042;12.240;2023-05-19T00:19:58;96609.22;;;11.24;63.01
12757;BME280;31601;48.042;12.240;2023-05-19T00:22:25;96612.94;;;11.30;62.83
12757;BME280;31601;48.042;12.240;2023-05-19T00:24:53;96605.38;;;11.12;63.27
12757;BME280;31601;48.042;12.240;2023-05-19T00:27:20;96596.28;;;11.38;62.80
12757;BME280;31601;48.042;12.240;2023-05-19T00:29:47;96602.34;;;11.23;63.05
12757;BME280;31601;48.042;12.240;2023-05-19T00:32:13;96598.22;;;11.06;63.71
12757;BME280;31601;48.042;12.240;2023-05-19T00:34:40;96601.00;;;10.89;64.18
12757;BME280;31601;48.042;12.240;2023-05-19T00:37:06;96599.28;;;11.35;63.12
12757;BME280;31601;48.042;12.240;2023-05-19T00:39:33;96595.81;;;11.19;63.35
12757;BME280;31601;48.042;12.240;2023-05-19T00:42:01;96593.00;;;11.21;63.29
12757;BME280;31601;48.042;12.240;2023-05-19T00:44:27;96600.16;;;10.89;64.39
12757;BME280;31601;48.042;12.240;2023-05-19T00:46:54;96584.53;;;10.96;64.23
12757;BME280;31601;48.042;12.240;2023-05-19T00:49:21;96588.41;;;10.85;64.66
12757;BME280;31601;48.042;12.240;2023-05-19T00:51:47;96583.25;;;10.91;64.46
12757;BME280;31601;48.042;12.240;2023-05-19T00:54:14;96586.22;;;10.88;64.51
12757;BME280;31601;48.042;12.240;2023-05-19T00:56:41;96574.88;;;10.73;64.83
12757;BME280;31601;48.042;12.240;2023-05-19T00:59:09;96575.47;;;10.83;64.51
12757;BME280;31601;48.042;12.240;2023-05-19T01:01:35;96570.31;;;10.90;64.38
12757;BME280;31601;48.042;12.240;2023-05-19T01:04:02;96577.41;;;10.81;64.53
12757;BME280;31601;48.042;12.240;2023-05-19T01:06:29;96573.09;;;10.88;64.64
12757;BME280;31601;48.042;12.240;2023-05-19T01:08:55;96571.53;;;11.17;63.73
12757;BME280;31601;48.042;12.240;2023-05-19T01:11:22;96572.19;;;10.58;65.53
12757;BME280;31601;48.042;12.240;2023-05-19T01:13:49;96571.47;;;10.87;64.92
12757;BME280;31601;48.042;12.240;2023-05-19T01:16:23;96572.63;;;11.08;64.31
12757;BME280;31601;48.042;12.240;2023-05-19T01:18:57;96573.34;;;11.17;63.99
12757;BME280;31601;48.042;12.240;2023-05-19T01:22:00;96572.97;;;11.05;64.31
12757;BME280;31601;48.042;12.240;2023-05-19T01:25:06;96580.81;;;10.90;64.53
12757;BME280;31601;48.042;12.240;2023-05-19T01:27:47;96581.03;;;11.18;64.03
12757;BME280;31601;48.042;12.240;2023-05-19T01:30:25;96580.81;;;10.90;64.61
12757;BME280;31601;48.042;12.240;2023-05-19T01:32:54;96582.63;;;10.89;64.58
12757;BME280;31601;48.042;12.240;2023-05-19T01:35:24;96581.13;;;11.10;64.09
12757;BME280;31601;48.042;12.240;2023-05-19T01:37:51;96581.84;;;11.04;64.55
12757;BME280;31601;48.042;12.240;2023-05-19T01:40:20;96583.75;;;11.10;64.31
12757;BME280;31601;48.042;12.240;2023-05-19T01:42:50;96582.22;;;10.54;65.94
12757;BME280;31601;48.042;12.240;2023-05-19T01:45:17;96577.03;;;10.92;65.22
12757;BME280;31601;48.042;12.240;2023-05-19T01:47:52;96580.63;;;10.91;65.83
12757;BME280;31601;48.042;12.240;2023-05-19T01:50:19;96580.09;;;10.96;65.53
12757;BME280;31601;48.042;12.240;2023-05-19T01:52:45;96571.38;;;10.81;66.11
12757;BME280;31601;48.042;12.240;2023-05-19T01:55:12;96581.97;;;10.87;66.07
12757;BME280;31601;48.042;12.240;2023-05-19T01:57:43;96574.53;;;10.76;66.42
12757;BME280;31601;48.042;12.240;2023-05-19T02:00:16;96578.13;;;10.75;66.56
12757;BME280;31601;48.042;12.240;2023-05-19T02:02:54;96579.53;;;10.86;66.10
12757;BME280;31601;48.042;12.240;2023-05-19T02:05:26;96585.66;;;10.78;66.84
12757;BME280;31601;48.042;12.240;2023-05-19T02:08:02;96584.44;;;10.66;66.88
12757;BME280;31601;48.042;12.240;2023-05-19T02:10:31;96586.66;;;10.77;66.86
12757;BME280;31601;48.042;12.240;2023-05-19T02:13:04;96580.19;;;10.65;67.03
12757;BME280;31601;48.042;12.240;2023-05-19T02:15:38;96581.69;;;10.59;67.63
12757;BME280;31601;48.042;12.240;2023-05-19T02:18:08;96577.69;;;10.48;67.89
12757;BME280;31601;48.042;12.240;2023-05-19T02:20:35;96581.06;;;10.34;68.61
12757;BME280;31601;48.042;12.240;2023-05-19T02:23:02;96577.44;;;10.27;68.70
12757;BME280;31601;48.042;12.240;2023-05-19T02:25:28;96572.53;;;10.32;68.68
12757;BME280;31601;48.042;12.240;2023-05-19T02:27:56;96574.19;;;10.25;68.89
12757;BME280;31601;48.042;12.240;2023-05-19T02:30:23;96570.03;;;10.07;69.84
12757;BME280;31601;48.042;12.240;2023-05-19T02:32:49;96566.38;;;10.16;69.64
12757;BME280;31601;48.042;12.240;2023-05-19T02:35:19;96565.19;;;10.27;69.04
12757;BME280;31601;48.042;12.240;2023-05-19T02:37:46;96564.69;;;10.24;69.35
12757;BME280;31601;48.042;12.240;2023-05-19T02:40:12;96558.47;;;9.93;69.79
12757;BME280;31601;48.042;12.240;2023-05-19T02:42:39;96558.31;;;9.95;70.18
12757;BME280;31601;48.042;12.240;2023-05-19T02:45:06;96554.31;;;9.67;70.94
12757;BME280;31601;48.042;12.240;2023-05-19T02:47:32;96557.75;;;9.76;70.57
12757;BME280;31601;48.042;12.240;2023-05-19T02:49:59;96556.50;;;9.95;69.81
12757;BME280;31601;48.042;12.240;2023-05-19T02:52:26;96558.25;;;9.72;70.54
12757;BME280;31601;48.042;12.240;2023-05-19T02:54:53;96554.13;;;9.77;70.47
12757;BME280;31601;48.042;12.240;2023-05-19T02:57:19;96555.75;;;9.78;70.31
12757;BME280;31601;48.042;12.240;2023-05-19T02:59:46;96548.03;;;9.37;71.33
12757;BME280;31601;48.042;12.240;2023-05-19T03:02:12;96546.69;;;9.49;71.32
12757;BME280;31601;48.042;12.240;2023-05-19T03:04:39;96549.97;;;9.43;71.27
12757;BME280;31601;48.042;12.240;2023-05-19T03:07:07;96553.94;;;9.31;71.81
12757;BME280;31601;48.042;12.240;2023-05-19T03:09:36;96554.72;;;9.48;71.40
12757;BME280;31601;48.042;12.240;2023-05-19T03:12:03;96557.84;;;9.43;71.48
12757;BME280;31601;48.042;12.240;2023-05-19T03:14:31;96559.84;;;9.33;71.78
12757;BME280;31601;48.042;12.240;2023-05-19T03:16:58;96550.31;;;9.40;71.48
12757;BME280;31601;48.042;12.240;2023-05-19T03:19:25;96559.00;;;9.32;71.65
12757;BME280;31601;48.042;12.240;2023-05-19T03:21:52;96557.84;;;9.43;71.38
12757;BME280;31601;48.042;12.240;2023-05-19T03:24:20;96557.72;;;9.28;71.37
12757;BME280;31601;48.042;12.240;2023-05-19T03:26:48;96559.69;;;9.35;71.12
12757;BME280;31601;48.042;12.240;2023-05-19T03:29:14;96556.91;;;9.36;71.13
12757;BME280;31601;48.042;12.240;2023-05-19T03:31:41;96557.88;;;9.35;71.19
12757;BME280;31601;48.042;12.240;2023-05-19T03:34:07;96559.47;;;9.44;70.92
12757;BME280;31601;48.042;12.240;2023-05-19T03:36:34;96556.22;;;9.42;70.91
12757;BME280;31601;48.042;12.240;2023-05-19T03:39:03;96557.16;;;9.49;70.69
12757;BME280;31601;48.042;12.240;2023-05-19T03:41:30;96561.13;;;9.45;70.61
12757;BME280;31601;48.042;12.240;2023-05-19T03:43:58;96562.09;;;9.44;70.87
12757;BME280;31601;48.042;12.240;2023-05-19T03:46:25;96560.16;;;9.38;71.59
12757;BME280;31601;48.042;12.240;2023-05-19T03:48:51;96556.56;;;9.39;71.04
12757;BME280;31601;48.042;12.240;2023-05-19T03:51:18;96555.91;;;9.37;70.97
12757;BME280;31601;48.042;12.240;2023-05-19T03:53:44;96557.31;;;9.56;70.37
12757;BME280;31601;48.042;12.240;2023-05-19T03:56:11;96558.34;;;9.47;70.76
12757;BME280;31601;48.042;12.240;2023-05-19T03:58:37;96559.19;;;9.39;70.92
12757;BME280;31601;48.042;12.240;2023-05-19T04:01:06;96552.59;;;9.43;71.25
12757;BME280;31601;48.042;12.240;2023-05-19T04:03:32;96560.03;;;9.23;71.56
12757;BME280;31601;48.042;12.240;2023-05-19T04:05:59;96551.66;;;9.36;71.89
12757;BME280;31601;48.042;12.240;2023-05-19T04:08:25;96555.56;;;9.48;71.35
12757;BME280;31601;48.042;12.240;2023-05-19T04:10:52;96558.25;;;9.63;71.23
12757;BME280;31601;48.042;12.240;2023-05-19T04:13:18;96555.56;;;9.48;71.75
12757;BME280;31601;48.042;12.240;2023-05-19T04:15:44;96555.75;;;9.78;71.33
12757;BME280;31601;48.042;12.240;2023-05-19T04:18:12;96548.19;;;9.83;71.63
12757;BME280;31601;48.042;12.240;2023-05-19T04:20:39;96549.63;;;9.94;71.16
12757;BME280;31601;48.042;12.240;2023-05-19T04:23:05;96552.16;;;9.79;71.22
12757;BME280;31601;48.042;12.240;2023-05-19T04:25:32;96552.72;;;9.58;72.46
12757;BME280;31601;48.042;12.240;2023-05-19T04:28:00;96544.03;;;9.97;71.72
12757;BME280;31601;48.042;12.240;2023-05-19T04:30:27;96546.47;;;9.99;70.94
12757;BME280;31601;48.042;12.240;2023-05-19T04:32:53;96552.72;;;9.98;70.61
12757;BME280;31601;48.042;12.240;2023-05-19T04:35:23;96548.59;;;10.27;70.09
12757;BME280;31601;48.042;12.240;2023-05-19T04:37:50;96547.47;;;10.29;69.83
12757;BME280;31601;48.042;12.240;2023-05-19T04:40:18;96556.75;;;10.40;69.59
12757;BME280;31601;48.042;12.240;2023-05-19T04:42:45;96545.75;;;10.45;69.51
12757;BME280;31601;48.042;12.240;2023-05-19T04:45:14;96547.34;;;10.69;69.18
12757;BME280;31601;48.042;12.240;2023-05-19T04:47:40;96548.97;;;10.70;68.94
12757;BME280;31601;48.042;12.240;2023-05-19T04:50:07;96549.91;;;10.77;68.49
12757;BME280;31601;48.042;12.240;2023-05-19T04:52:36;96555.53;;;10.74;69.07
12757;BME280;31601;48.042;12.240;2023-05-19T04:55:03;96547.41;;;10.84;68.44
12757;BME280;31601;48.042;12.240;2023-05-19T04:57:30;96542.06;;;10.92;68.15
12757;BME280;31601;48.042;12.240;2023-05-19T04:59:56;96543.78;;;11.00;68.00
12757;BME280;31601;48.042;12.240;2023-05-19T05:02:24;96540.03;;;11.17;67.83
12757;BME280;31601;48.042;12.240;2023-05-19T05:04:50;96544.38;;;11.25;66.97
12757;BME280;31601;48.042;12.240;2023-05-19T05:07:18;96536.00;;;10.91;67.09
12757;BME280;31601;48.042;12.240;2023-05-19T05:09:46;96542.03;;;11.30;66.51
12757;BME280;31601;48.042;12.240;2023-05-19T05:12:14;96535.22;;;11.65;65.22
12757;BME280;31601;48.042;12.240;2023-05-19T05:14:41;96537.66;;;10.92;66.76
12757;BME280;31601;48.042;12.240;2023-05-19T05:17:11;96525.34;;;11.08;66.78
12757;BME280;31601;48.042;12.240;2023-05-19T05:19:38;96527.88;;;11.46;65.48
12757;BME280;31601;48.042;12.240;2023-05-19T05:22:05;96528.34;;;11.50;65.32
12757;BME280;31601;48.042;12.240;2023-05-19T05:24:32;96537.13;;;11.72;64.39
12757;BME280;31601;48.042;12.240;2023-05-19T05:27:00;96539.22;;;11.61;64.60
12757;BME280;31601;48.042;12.240;2023-05-19T05:29:26;96535.38;;;11.94;64.00
12757;BME280;31601;48.042;12.240;2023-05-19T05:31:53;96531.72;;;11.43;65.15
12757;BME280;31601;48.042;12.240;2023-05-19T05:34:19;96528.97;;;11.67;64.81
12757;BME280;31601;48.042;12.240;2023-05-19T05:36:45;96519.44;;;11.80;64.24
12757;BME280;31601;48.042;12.240;2023-05-19T05:39:12;96533.03;;;11.99;63.92
12757;BME280;31601;48.042;12.240;2023-05-19T05:41:38;96532.50;;;12.25;63.29
12757;BME280;31601;48.042;12.240;2023-05-19T05:44:06;96526.88;;;12.28;63.13
12757;BME280;31601;48.042;12.240;2023-05-19T05:46:32;96525.41;;;12.04;62.92
12757;BME280;31601;48.042;12.240;2023-05-19T05:48:59;96532.94;;;11.92;63.36
12757;BME280;31601;48.042;12.240;2023-05-19T05:51:26;96527.25;;;12.47;63.08
12757;BME280;31601;48.042;12.240;2023-05-19T05:53:54;96536.91;;;12.03;63.27
12757;BME280;31601;48.042;12.240;2023-05-19T05:56:21;96528.56;;;12.14;63.34
12757;BME280;31601;48.042;12.240;2023-05-19T05:58:47;96531.88;;;12.45;63.07
12757;BME280;31601;48.042;12.240;2023-05-19T06:01:16;96533.75;;;12.72;62.02
12757;BME280;31601;48.042;12.240;2023-05-19T06:03:42;96534.44;;;13.10;61.84
12757;BME280;31601;48.042;12.240;2023-05-19T06:06:09;96540.47;;;13.03;60.76
12757;BME280;31601;48.042;12.240;2023-05-19T06:08:36;96544.38;;;12.86;60.92
12757;BME280;31601;48.042;12.240;2023-05-19T06:11:02;96540.03;;;12.71;61.32
12757;BME280;31601;48.042;12.240;2023-05-19T06:13:32;96537.97;;;12.95;60.75
12757;BME280;31601;48.042;12.240;2023-05-19T06:15:59;96542.25;;;12.96;60.40
12757;BME280;31601;48.042;12.240;2023-05-19T06:18:27;96545.66;;;12.90;60.54
12757;BME280;31601;48.042;12.240;2023-05-19T06:20:53;96543.13;;;12.82;60.86
12757;BME280;31601;48.042;12.240;2023-05-19T06:23:20;96539.53;;;13.39;59.70
12757;BME280;31601;48.042;12.240;2023-05-19T06:25:46;96544.72;;;13.04;60.12
12757;BME280;31601;48.042;12.240;2023-05-19T06:28:13;96540.44;;;13.60;59.27
12757;BME280;31601;48.042;12.240;2023-05-19T06:30:39;96534.63;;;13.08;60.19
12757;BME280;31601;48.042;12.240;2023-05-19T06:33:06;96539.38;;;13.19;59.49
12757;BME280;31601;48.042;12.240;2023-05-19T06:35:34;96539.09;;;13.71;58.06
12757;BME280;31601;48.042;12.240;2023-05-19T06:38:00;96536.72;;;13.48;58.81
12757;BME280;31601;48.042;12.240;2023-05-19T06:40:27;96541.19;;;13.47;59.01
12757;BME280;31601;48.042;12.240;2023-05-19T06:42:53;96546.53;;;13.60;58.64
12757;BME280;31601;48.042;12.240;2023-05-19T06:45:19;96545.88;;;13.52;58.59
12757;BME280;31601;48.042;12.240;2023-05-19T06:47:46;96554.09;;;13.35;58.96
12757;BME280;31601;48.042;12.240;2023-05-19T06:50:13;96552.78;;;13.24;60.17
12757;BME280;31601;48.042;12.240;2023-05-19T06:52:41;96549.56;;;13.29;59.02
12757;BME280;31601;48.042;12.240;2023-05-19T06:55:08;96543.25;;;12.95;59.20
12757;BME280;31601;48.042;12.240;2023-05-19T06:57:35;96537.59;;;12.98;59.27
12757;BME280;31601;48.042;12.240;2023-05-19T07:00:01;96544.25;;;13.22;58.62
12757;BME280;31601;48.042;12.240;2023-05-19T07:02:29;96541.28;;;13.04;59.32
12757;BME280;31601;48.042;12.240;2023-05-19T07:04:56;96538.16;;;13.22;59.23
12757;BME280;31601;48.042;12.240;2023-05-19T07:07:22;96534.56;;;13.58;58.68
12757;BME280;31601;48.042;12.240;2023-05-19T07:09:50;96536.25;;;13.79;57.64
12757;BME280;31601;48.042;12.240;2023-05-19T07:12:16;96537.44;;;14.18;56.91
12757;BME280;31601;48.042;12.240;2023-05-19T07:14:43;96526.28;;;14.29;56.59
12757;BME280;31601;48.042;12.240;2023-05-19T07:17:09;96524.69;;;14.35;56.41
12757;BME280;31601;48.042;12.240;2023-05-19T07:19:36;96525.31;;;14.57;56.65
12757;BME280;31601;48.042;12.240;2023-05-19T07:22:04;96529.22;;;14.68;55.70
12757;BME280;31601;48.042;12.240;2023-05-19T07:24:30;96514.41;;;14.94;53.88
12757;BME280;31601;48.042;12.240;2023-05-19T07:26:58;96514.56;;;15.06;54.41
12757;BME280;31601;48.042;12.240;2023-05-19T07:29:24;96511.94;;;14.99;55.21
12757;BME280;31601;48.042;12.240;2023-05-19T07:31:51;96524.75;;;14.82;54.38
12757;BME280;31601;48.042;12.240;2023-05-19T07:34:21;96525.97;;;14.66;54.38
12757;BME280;31601;48.042;12.240;2023-05-19T07:36:48;96512.63;;;15.60;53.31
12757;BME280;31601;48.042;12.240;2023-05-19T07:39:15;96518.69;;;15.73;52.98
12757;BME280;31601;48.042;12.240;2023-05-19T07:41:42;96518.31;;;15.70;52.94
12757;BME280;31601;48.042;12.240;2023-05-19T07:44:10;96522.22;;;16.44;50.63
12757;BME280;31601;48.042;12.240;2023-05-19T07:46:36;96517.38;;;16.67;49.93
12757;BME280;31601;48.042;12.240;2023-05-19T07:49:03;96521.53;;;16.88;50.12
12757;BME280;31601;48.042;12.240;2023-05-19T07:51:29;96523.91;;;16.96;49.65
12757;BME280;31601;48.042;12.240;2023-05-19T07:53:56;96517.72;;;16.77;49.86
12757;BME280;31601;48.042;12.240;2023-05-19T07:56:23;96520.47;;;16.63;49.35
12757;BME280;31601;48.042;12.240;2023-05-19T07:58:49;96510.13;;;16.87;49.51
12757;BME280;31601;48.042;12.240;2023-05-19T08:01:17;96513.00;;;16.54;49.56
12757;BME280;31601;48.042;12.240;2023-05-19T08:03:44;96515.41;;;16.23;50.92
12757;BME280;31601;48.042;12.240;2023-05-19T08:06:10;96517.34;;;16.09;50.23
12757;BME280;31601;48.042;12.240;2023-05-19T08:08:37;96518.75;;;15.53;51.80
12757;BME280;31601;48.042;12.240;2023-05-19T08:11:03;96516.41;;;15.18;52.02
12757;BME280;31601;48.042;12.240;2023-05-19T08:13:30;96519.66;;;14.87;52.98
12757;BME280;31601;48.042;12.240;2023-05-19T08:15:58;96515.81;;;14.63;53.23
12757;BME280;31601;48.042;12.240;2023-05-19T08:18:26;96517.22;;;14.65;54.24
12757;BME280;31601;48.042;12.240;2023-05-19T08:20:53;96515.81;;;14.76;54.91
12757;BME280;31601;48.042;12.240;2023-05-19T08:23:20;96510.53;;;14.63;54.67
12757;BME280;31601;48.042;12.240;2023-05-19T08:25:47;96515.00;;;14.62;54.50
12757;BME280;31601;48.042;12.240;2023-05-19T08:28:13;96504.84;;;14.93;54.04
12757;BME280;31601;48.042;12.240;2023-05-19T08:30:40;96516.00;;;14.68;55.09
12757;BME280;31601;48.042;12.240;2023-05-19T08:33:06;96513.06;;;14.16;56.34
12757;BME280;31601;48.042;12.240;2023-05-19T08:35:34;96516.78;;;14.42;55.65
12757;BME280;31601;48.042;12.240;2023-05-19T08:38:00;96514.13;;;14.42;56.00
12757;BME280;31601;48.042;12.240;2023-05-19T08:40:27;96521.00;;;13.61;57.38
12757;BME280;31601;48.042;12.240;2023-05-19T08:42:55;96519.81;;;13.70;57.15
12757;BME280;31601;48.042;12.240;2023-05-19T08:45:22;96517.78;;;13.72;57.28
12757;BME280;31601;48.042;12.240;2023-05-19T08:47:50;96515.88;;;14.08;56.00
12757;BME280;31601;48.042;12.240;2023-05-19T08:50:20;96508.66;;;14.43;54.89
12757;BME280;31601;48.042;12.240;2023-05-19T08:52:53;96507.28;;;14.88;54.95
12757;BME280;31601;48.042;12.240;2023-05-19T08:55:29;96515.72;;;14.23;55.65
12757;BME280;31601;48.042;12.240;2023-05-19T08:57:58;96521.16;;;14.01;57.11
12757;BME280;31601;48.042;12.240;2023-05-19T09:00:24;96512.09;;;14.37;56.69
12757;BME280;31601;48.042;12.240;2023-05-19T09:02:51;96511.50;;;14.48;56.26
12757;BME280;31601;48.042;12.240;2023-05-19T09:05:19;96511.91;;;14.32;56.10
12757;BME280;31601;48.042;12.240;2023-05-19T09:07:46;96518.78;;;14.26;55.69
12757;BME280;31601;48.042;12.240;2023-05-19T09:10:14;96520.84;;;14.58;55.58
12757;BME280;31601;48.042;12.240;2023-05-19T09:12:41;96519.81;;;14.32;55.49
12757;BME280;31601;48.042;12.240;2023-05-19T09:15:09;96511.47;;;14.22;56.83
12757;BME280;31601;48.042;12.240;2023-05-19T09:17:37;96515.78;;;14.43;56.14
12757;BME280;31601;48.042;12.240;2023-05-19T09:20:05;96519.00;;;14.38;56.32
12757;BME280;31601;48.042;12.240;2023-05-19T09:22:39;96509.84;;;14.34;55.65
12757;BME280;31601;48.042;12.240;2023-05-19T09:25:17;96521.97;;;14.08;56.96
12757;BME280;31601;48.042;12.240;2023-05-19T09:27:45;96514.25;;;14.00;56.56
12757;BME280;31601;48.042;12.240;2023-05-19T09:30:13;96523.16;;;13.99;56.71
12757;BME280;31601;48.042;12.240;2023-05-19T09:32:39;96517.84;;;13.86;57.17
12757;BME280;31601;48.042;12.240;2023-05-19T09:35:07;96514.69;;;14.24;55.39
12757;BME280;31601;48.042;12.240;2023-05-19T09:37:33;96505.41;;;14.41;55.18
12757;BME280;31601;48.042;12.240;2023-05-19T09:40:00;96503.34;;;14.30;56.25
12757;BME280;31601;48.042;12.240;2023-05-19T09:42:27;96498.06;;;14.17;57.20
12757;BME280;31601;48.042;12.240;2023-05-19T09:45:00;96509.59;;;13.54;58.24
12757;BME280;31601;48.042;12.240;2023-05-19T09:47:27;96513.22;;;13.46;58.43
12757;BME280;31601;48.042;12.240;2023-05-19T09:49:53;96504.06;;;13.42;59.09
12757;BME280;31601;48.042;12.240;2023-05-19T09:52:21;96513.03;;;13.19;59.51
12757;BME280;31601;48.042;12.240;2023-05-19T09:54:48;96504.47;;;13.94;58.65
12757;BME280;31601;48.042;12.240;2023-05-19T09:57:16;96513.44;;;14.06;57.88
12757;BME280;31601;48.042;12.240;2023-05-19T09:59:44;96503.78;;;14.47;56.42
12757;BME280;31601;48.042;12.240;2023-05-19T10:02:14;96498.91;;;14.30;55.69
12757;BME280;31601;48.042;12.240;2023-05-19T10:04:42;96489.63;;;14.61;56.64
12757;BME280;31601;48.042;12.240;2023-05-19T10:07:09;96488.59;;;14.69;56.93
12757;BME280;31601;48.042;12.240;2023-05-19T10:09:38;96491.44;;;14.61;55.84
12757;BME280;31601;48.042;12.240;2023-05-19T10:12:07;96484.25;;;14.35;55.69
12757;BME280;31601;48.042;12.240;2023-05-19T10:14:34;96482.84;;;14.19;56.41
12757;BME280;31601;48.042;12.240;2023-05-19T10:17:02;96474.94;;;14.45;56.47
12757;BME280;31601;48.042;12.240;2023-05-19T10:19:29;96479.03;;;14.68;55.82
12757;BME280;31601;48.042;12.240;2023-05-19T10:21:55;96479.84;;;14.68;55.38
12757;BME280;31601;48.042;12.240;2023-05-19T10:24:22;96482.69;;;14.60;55.79
12757;BME280;31601;48.042;12.240;2023-05-19T10:26:53;96478.97;;;15.28;54.59
12757;BME280;31601;48.042;12.240;2023-05-19T10:29:25;96480.34;;;15.44;53.18
12757;BME280;31601;48.042;12.240;2023-05-19T10:31:54;96474.97;;;14.99;54.83
12757;BME280;31601;48.042;12.240;2023-05-19T10:34:35;96473.66;;;15.42;52.93
12757;BME280;31601;48.042;12.240;2023-05-19T10:37:23;96467.97;;;16.28;51.89
12757;BME280;31601;48.042;12.240;2023-05-19T10:39:54;96468.13;;;16.34;49.74
12757;BME280;31601;48.042;12.240;2023-05-19T10:42:30;96478.22;;;15.73;52.37
12757;BME280;31601;48.042;12.240;2023-05-19T10:45:04;96465.44;;;15.63;52.91
12757;BME280;31601;48.042;12.240;2023-05-19T10:47:35;96473.38;;;15.56;51.84
12757;BME280;31601;48.042;12.240;2023-05-19T10:50:03;96471.69;;;15.82;53.08
12757;BME280;31601;48.042;12.240;2023-05-19T10:52:35;96463.47;;;15.45;53.19
12757;BME280;31601;48.042;12.240;2023-05-19T10:55:02;96477.34;;;15.20;52.80
12757;BME280;31601;48.042;12.240;2023-05-19T10:57:29;96472.41;;;15.51;53.94
12757;BME280;31601;48.042;12.240;2023-05-19T10:59:57;96467.03;;;15.71;52.59
12757;BME280;31601;48.042;12.240;2023-05-19T11:02:36;96471.63;;;15.37;52.92
12757;BME280;31601;48.042;12.240;2023-05-19T11:05:08;96458.13;;;16.36;51.04
12757;BME280;31601;48.042;12.240;2023-05-19T11:07:34;96475.72;;;15.91;51.46
12757;BME280;31601;48.042;12.240;2023-05-19T11:10:05;96467.41;;;16.45;50.60
12757;BME280;31601;48.042;12.240;2023-05-19T11:12:39;96471.16;;;15.53;52.94
12757;BME280;31601;48.042;12.240;2023-05-19T11:15:09;96476.91;;;15.30;52.90
12757;BME280;31601;48.042;12.240;2023-05-19T11:17:36;96458.69;;;15.67;53.82
12757;BME280;31601;48.042;12.240;2023-05-19T11:20:11;96461.63;;;15.46;53.38
12757;BME280;31601;48.042;12.240;2023-05-19T11:23:00;96470.25;;;15.80;52.73
12757;BME280;31601;48.042;12.240;2023-05-19T11:25:40;96469.19;;;15.29;53.83
12757;BME280;31601;48.042;12.240;2023-05-19T11:28:07;96457.69;;;15.03;55.43
12757;BME280;31601;48.042;12.240;2023-05-19T11:30:36;96456.88;;;15.68;54.83
12757;BME280;31601;48.042;12.240;2023-05-19T11:33:04;96456.34;;;15.52;53.64
12757;BME280;31601;48.042;12.240;2023-05-19T11:35:33;96451.81;;;15.66;54.41
12757;BME280;31601;48.042;12.240;2023-05-19T11:38:00;96448.47;;;15.32;53.47
12757;BME280;31601;48.042;12.240;2023-05-19T11:40:27;96454.44;;;15.60;53.71
12757;BME280;31601;48.042;12.240;2023-05-19T11:42:54;96455.81;;;15.24;54.23
12757;BME280;31601;48.042;12.240;2023-05-19T11:45:23;96454.63;;;15.06;55.23
12757;BME280;31601;48.042;12.240;2023-05-19T11:47:50;96464.28;;;15.39;53.34
12757;BME280;31601;48.042;12.240;2023-05-19T11:50:17;96466.84;;;14.87;55.34
12757;BME280;31601;48.042;12.240;2023-05-19T11:52:45;96458.22;;;15.32;55.73
12757;BME280;31601;48.042;12.240;2023-05-19T11:55:14;96458.38;;;15.44;54.29
12757;BME280;31601;48.042;12.240;2023-05-19T11:57:41;96466.44;;;14.97;55.02
12757;BME280;31601;48.042;12.240;2023-05-19T12:00:10;96463.41;;;14.73;55.75
12757;BME280;31601;48.042;12.240;2023-05-19T12:02:36;96461.47;;;15.27;54.52
12757;BME280;31601;48.042;12.240;2023-05-19T12:05:03;96463.50;;;15.38;53.62
12757;BME280;31601;48.042;12.240;2023-05-19T12:07:30;96462.88;;;15.43;53.92
12757;BME280;31601;48.042;12.240;2023-05-19T12:09:58;96467.47;;;14.76;55.84
12757;BME280;31601;48.042;12.240;2023-05-19T12:12:25;96472.94;;;14.94;54.77
12757;BME280;31601;48.042;12.240;2023-05-19T12:14:55;96468.16;;;15.36;53.22
12757;BME280;31601;48.042;12.240;2023-05-19T12:17:22;96468.44;;;15.80;52.86
12757;BME280;31601;48.042;12.240;2023-05-19T12:19:49;96461.22;;;15.49;53.08
12757;BME280;31601;48.042;12.240;2023-05-19T12:22:17;96454.09;;;15.49;53.33
12757;BME280;31601;48.042;12.240;2023-05-19T12:24:44;96448.41;;;15.91;52.23
12757;BME280;31601;48.042;12.240;2023-05-19T12:27:19;96450.75;;;15.74;53.01
12757;BME280;31601;48.042;12.240;2023-05-19T12:29:48;96454.44;;;15.60;52.88
12757;BME280;31601;48.042;12.240;2023-05-19T12:32:15;96445.88;;;15.71;53.46
12757;BME280;31601;48.042;12.240;2023-05-19T12:34:42;96451.34;;;15.17;54.56
12757;BME280;31601;48.042;12.240;2023-05-19T12:37:09;96442.72;;;15.42;54.15
12757;BME280;31601;48.042;12.240;2023-05-19T12:39:36;96454.13;;;15.36;55.00
12757;BME280;31601;48.042;12.240;2023-05-19T12:42:06;96453.06;;;15.57;53.61
12757;BME280;31601;48.042;12.240;2023-05-19T12:44:36;96453.47;;;15.54;53.70
12757;BME280;31601;48.042;12.240;2023-05-19T12:47:04;96450.16;;;16.10;52.44
12757;BME280;31601;48.042;12.240;2023-05-19T12:49:31;96448.81;;;16.26;52.70
12757;BME280;31601;48.042;12.240;2023-05-19T12:52:00;96446.25;;;16.70;51.11
12757;BME280;31601;48.042;12.240;2023-05-19T12:54:26;96449.78;;;16.89;49.19
12757;BME280;31601;48.042;12.240;2023-05-19T12:56:56;96441.03;;;16.82;50.38